Time;durP1;ratioP1;P1;durP2;ratioP2;P2;SDS_P1;SDS_P2;PMS_P1;PMS_P2;Temp;Humidity;BMP_temperature;BMP_pressure;BME280_temperature;BME280_humidity;BME280_pressure;Samples;Min_cycle;Max_cycle;Signal;HPM_P1;HPM_P2
2022/10/23 00:01:29;;;;;;;14.37;5.43;;;18.80;73.10;;;;;;5033006;28;20239;-92
2022/10/23 00:04:01;;;;;;;11.40;5.63;;;18.90;73.10;;;;;;5034577;28;20218;-91
2022/10/23 00:06:31;;;;;;;12.17;5.47;;;18.80;73.40;;;;;;5033530;28;20212;-88
2022/10/23 00:09:00;;;;;;;15.73;6.53;;;18.80;73.20;;;;;;5018044;28;20650;-91
2022/10/23 00:11:28;;;;;;;14.20;5.93;;;18.80;73.10;;;;;;5018223;28;20204;-90
2022/10/23 00:14:00;;;;;;;10.90;5.13;;;18.80;73.20;;;;;;5037550;28;20220;-95
2022/10/23 00:16:29;;;;;;;8.27;4.60;;;18.80;73.20;;;;;;5034668;28;20209;-96
2022/10/23 00:18:58;;;;;;;11.97;5.33;;;18.80;73.40;;;;;;5024977;28;20705;-95
2022/10/23 00:21:36;;;;;;;10.17;5.63;;;18.80;73.60;;;;;;5025624;28;20205;-96
2022/10/23 00:24:05;;;;;;;15.13;5.40;;;18.80;74.00;;;;;;5020271;28;20243;-94
2022/10/23 00:26:40;;;;;;;7.70;4.53;;;18.80;73.70;;;;;;5034803;28;20217;-94
2022/10/23 00:29:11;;;;;;;9.23;4.57;;;18.80;74.30;;;;;;5025318;28;20315;-91
2022/10/23 00:31:39;;;;;;;8.83;5.03;;;18.80;74.10;;;;;;5026878;28;20201;-94
2022/10/23 00:34:09;;;;;;;11.00;5.30;;;18.80;74.10;;;;;;5026789;28;20208;-95
2022/10/23 00:36:41;;;;;;;13.10;5.70;;;18.80;73.80;;;;;;5031670;28;20204;-90
2022/10/23 00:39:11;;;;;;;13.60;5.30;;;18.80;74.30;;;;;;5030439;28;20239;-91
2022/10/23 00:41:41;;;;;;;8.83;4.90;;;18.80;74.30;;;;;;5031262;28;20216;-92
2022/10/23 00:44:31;;;;;;;14.83;6.90;;;18.80;74.20;;;;;;5038610;28;20196;-96
2022/10/23 00:47:00;;;;;;;8.43;4.13;;;18.80;74.30;;;;;;5020964;28;20219;-95
2022/10/23 00:49:28;;;;;;;14.73;6.23;;;18.80;74.20;;;;;;5022967;28;20196;-95
2022/10/23 00:52:03;;;;;;;11.37;5.37;;;18.80;74.30;;;;;;5031814;28;20235;-93
2022/10/23 00:54:37;;;;;;;12.53;5.23;;;18.80;74.80;;;;;;5021733;28;20229;-95
2022/10/23 00:57:11;;;;;;;12.53;5.27;;;18.70;74.20;;;;;;5028421;28;20203;-96
2022/10/23 00:59:39;;;;;;;15.50;6.90;;;18.70;74.40;;;;;;5036282;28;21109;-94
2022/10/23 01:02:07;;;;;;;12.10;5.30;;;18.70;74.20;;;;;;5039262;28;20276;-96
2022/10/23 01:04:36;;;;;;;14.47;5.73;;;18.70;74.30;;;;;;5029355;28;20247;-95
2022/10/23 01:07:11;;;;;;;7.27;4.40;;;18.70;74.20;;;;;;5023476;28;20213;-92
2022/10/23 01:09:44;;;;;;;17.53;7.33;;;18.70;74.60;;;;;;5020144;28;20637;-96
2022/10/23 01:12:21;;;;;;;9.13;4.90;;;18.70;75.30;;;;;;5033615;28;20270;-96
2022/10/23 01:15:01;;;;;;;7.73;4.60;;;18.70;74.60;;;;;;5035256;28;20204;-96
2022/10/23 01:17:37;;;;;;;12.10;5.53;;;18.60;74.70;;;;;;5018223;28;20280;-91
2022/10/23 01:20:35;;;;;;;10.87;5.00;;;18.60;74.50;;;;;;5016800;28;20228;-90
2022/10/23 01:23:31;;;;;;;10.87;4.93;;;18.60;75.30;;;;;;5033054;28;20212;-92
2022/10/23 01:26:26;;;;;;;9.87;5.20;;;18.60;75.20;;;;;;5023435;28;20230;-91
2022/10/23 01:29:01;;;;;;;8.77;4.77;;;18.60;74.70;;;;;;5011184;28;20232;-90
2022/10/23 01:31:36;;;;;;;11.33;5.10;;;18.60;74.90;;;;;;5011308;28;20215;-91
2022/10/23 01:34:16;;;;;;;10.97;5.43;;;18.60;75.30;;;;;;5010122;28;20239;-87
2022/10/23 01:36:47;;;;;;;21.70;6.83;;;18.60;75.30;;;;;;5011494;28;20262;-90
2022/10/23 01:39:20;;;;;;;13.13;5.50;;;18.60;74.90;;;;;;5025846;28;20211;-90
2022/10/23 01:41:52;;;;;;;15.57;5.77;;;18.50;75.30;;;;;;5025900;28;21181;-90
2022/10/23 01:44:27;;;;;;;10.83;4.97;;;18.50;75.40;;;;;;5018862;28;20310;-91
2022/10/23 01:46:55;;;;;;;13.80;5.67;;;18.50;75.80;;;;;;5017954;28;20211;-92
2022/10/23 01:49:24;;;;;;;9.00;5.00;;;18.50;75.40;;;;;;5028960;28;20219;-90
2022/10/23 01:51:58;;;;;;;11.17;5.27;;;18.50;75.90;;;;;;5024838;28;20297;-91
2022/10/23 01:54:29;;;;;;;13.07;5.50;;;18.50;76.10;;;;;;5028089;28;20205;-90
2022/10/23 01:56:58;;;;;;;15.10;6.20;;;18.50;76.10;;;;;;5023083;28;20295;-88
2022/10/23 01:59:34;;;;;;;14.23;5.43;;;18.50;76.30;;;;;;4996821;28;162132;-91
2022/10/23 02:02:03;;;;;;;9.97;4.90;;;18.50;76.60;;;;;;4986961;28;20268;-91
2022/10/23 02:04:33;;;;;;;10.20;5.30;;;18.50;76.60;;;;;;5026267;28;20274;-88
2022/10/23 02:07:01;;;;;;;12.00;5.13;;;18.50;76.80;;;;;;5008948;28;20215;-91
2022/10/23 02:09:28;;;;;;;13.00;5.30;;;18.50;76.60;;;;;;5012180;28;20223;-91
2022/10/23 02:12:04;;;;;;;8.80;4.33;;;18.50;76.80;;;;;;5020413;28;20271;-91
2022/10/23 02:14:46;;;;;;;13.83;5.17;;;18.50;77.40;;;;;;5033616;28;21114;-89
2022/10/23 02:17:18;;;;;;;12.23;5.87;;;18.50;77.80;;;;;;5020864;28;20209;-88
2022/10/23 02:19:54;;;;;;;14.50;5.47;;;18.50;77.00;;;;;;5014065;28;20315;-91
2022/10/23 02:22:26;;;;;;;8.73;4.70;;;18.50;77.50;;;;;;5025680;28;20223;-87
2022/10/23 02:25:01;;;;;;;10.93;5.17;;;18.50;77.20;;;;;;5034276;28;20548;-90
2022/10/23 02:27:37;;;;;;;10.57;5.00;;;18.50;77.50;;;;;;5024782;28;20293;-87
2022/10/23 02:30:08;;;;;;;10.37;5.10;;;18.50;77.00;;;;;;5022459;28;20275;-91
2022/10/23 02:32:37;;;;;;;11.13;5.37;;;18.50;77.00;;;;;;5033699;28;20246;-91
2022/10/23 02:35:05;;;;;;;11.80;5.63;;;18.50;76.80;;;;;;5025252;28;20239;-91
2022/10/23 02:37:34;;;;;;;13.80;6.33;;;18.50;77.20;;;;;;5015446;28;20260;-93
2022/10/23 02:40:02;;;;;;;13.83;6.17;;;18.50;77.40;;;;;;5016013;28;20213;-91
2022/10/23 02:42:44;;;;;;;17.20;6.13;;;18.50;77.50;;;;;;5016032;28;20267;-92
2022/10/23 02:45:19;;;;;;;10.63;5.10;;;18.50;78.10;;;;;;5022446;28;20207;-91
2022/10/23 02:47:54;;;;;;;12.77;5.20;;;18.50;77.90;;;;;;5022334;28;20298;-90
2022/10/23 02:50:29;;;;;;;9.13;5.00;;;18.50;77.60;;;;;;5014972;28;20205;-93
2022/10/23 02:53:07;;;;;;;12.87;5.80;;;18.50;77.90;;;;;;5024774;28;20254;-93
2022/10/23 02:56:02;;;;;;;12.20;5.60;;;18.50;77.90;;;;;;5017921;28;20208;-91
2022/10/23 02:58:48;;;;;;;17.70;6.83;;;18.50;77.90;;;;;;5016022;28;20236;-91
2022/10/23 03:01:20;;;;;;;11.70;5.20;;;18.50;78.10;;;;;;5014636;28;20253;-90
2022/10/23 03:03:53;;;;;;;15.33;6.13;;;18.50;77.80;;;;;;5011033;28;20232;-92
2022/10/23 03:06:24;;;;;;;11.27;5.30;;;18.50;78.20;;;;;;5014133;28;20208;-90
2022/10/23 03:09:00;;;;;;;19.20;7.10;;;18.50;77.90;;;;;;5013659;28;20259;-90
2022/10/23 03:11:31;;;;;;;12.93;5.47;;;18.50;78.40;;;;;;5014157;28;20262;-90
2022/10/23 03:13:58;;;;;;;12.63;5.30;;;18.50;78.00;;;;;;5015155;28;20235;-92
2022/10/23 03:16:27;;;;;;;9.47;4.57;;;18.50;78.10;;;;;;5015101;28;20606;-91
2022/10/23 03:18:54;;;;;;;12.03;5.07;;;18.50;78.70;;;;;;5013900;28;20243;-91
2022/10/23 03:21:22;;;;;;;10.67;5.13;;;18.60;78.50;;;;;;5014835;28;20212;-92
2022/10/23 03:23:50;;;;;;;12.97;4.53;;;18.50;78.50;;;;;;5028000;28;20204;-91
2022/10/23 03:26:19;;;;;;;11.17;4.57;;;18.50;79.40;;;;;;5018868;28;20233;-91
2022/10/23 03:28:46;;;;;;;10.50;4.73;;;18.50;78.80;;;;;;5021744;28;20224;-91
2022/10/23 03:31:14;;;;;;;11.53;5.13;;;18.50;78.60;;;;;;5012920;28;20258;-91
2022/10/23 03:33:42;;;;;;;10.53;5.03;;;18.50;78.70;;;;;;5029534;28;20293;-91
2022/10/23 03:36:10;;;;;;;10.43;4.97;;;18.50;78.90;;;;;;5025266;28;20213;-91
2022/10/23 03:38:37;;;;;;;15.27;6.07;;;18.50;78.70;;;;;;5014625;28;20259;-91
2022/10/23 03:41:07;;;;;;;14.17;5.23;;;18.50;78.80;;;;;;5031198;28;20290;-88
2022/10/23 03:43:34;;;;;;;16.87;5.63;;;18.50;79.00;;;;;;5018196;28;20231;-91
2022/10/23 03:46:01;;;;;;;11.10;5.10;;;18.50;78.60;;;;;;5015374;28;20616;-90
2022/10/23 03:48:28;;;;;;;12.40;5.03;;;18.50;78.70;;;;;;5023909;28;20205;-88
2022/10/23 03:50:58;;;;;;;12.23;5.23;;;18.50;78.80;;;;;;5012289;28;20286;-90
2022/10/23 03:53:25;;;;;;;10.80;4.50;;;18.50;79.00;;;;;;5019239;28;20212;-90
2022/10/23 03:55:53;;;;;;;22.83;7.53;;;18.50;78.80;;;;;;5029035;28;20227;-90
2022/10/23 03:58:21;;;;;;;10.90;5.00;;;18.50;78.50;;;;;;5026891;28;20232;-91
2022/10/23 04:00:48;;;;;;;13.07;5.17;;;18.50;79.00;;;;;;5012578;28;20221;-91
2022/10/23 04:03:18;;;;;;;10.87;4.77;;;18.50;78.90;;;;;;5012585;28;20210;-89
2022/10/23 04:05:45;;;;;;;16.57;5.63;;;18.50;79.30;;;;;;5012385;28;20255;-92
2022/10/23 04:08:14;;;;;;;7.43;3.73;;;18.50;79.00;;;;;;5023307;28;20339;-90
2022/10/23 04:10:42;;;;;;;11.20;4.43;;;18.50;79.40;;;;;;5030351;28;20358;-89
2022/10/23 04:13:09;;;;;;;9.53;4.00;;;18.50;79.50;;;;;;5020723;28;20331;-91
2022/10/23 04:15:37;;;;;;;11.17;4.53;;;18.40;79.50;;;;;;5011200;28;20346;-91
2022/10/23 04:18:04;;;;;;;11.40;4.60;;;18.40;79.70;;;;;;5015074;28;20904;-90
2022/10/23 04:20:31;;;;;;;9.77;4.63;;;18.40;79.70;;;;;;5018939;28;20243;-91
2022/10/23 04:22:58;;;;;;;9.83;4.87;;;18.40;79.80;;;;;;5030178;28;20250;-92
2022/10/23 04:25:28;;;;;;;12.73;5.47;;;18.40;80.00;;;;;;5032106;28;20210;-92
2022/10/23 04:27:55;;;;;;;10.80;4.43;;;18.40;80.60;;;;;;5018575;28;20224;-90
2022/10/23 04:30:23;;;;;;;13.03;5.10;;;18.40;80.30;;;;;;5012725;28;20296;-90
2022/10/23 04:32:51;;;;;;;9.10;4.10;;;18.40;80.30;;;;;;5026895;28;20210;-91
2022/10/23 04:35:18;;;;;;;10.00;4.60;;;18.40;80.50;;;;;;5033022;28;20250;-91
2022/10/23 04:37:48;;;;;;;7.93;3.30;;;18.40;80.40;;;;;;5016262;28;20215;-92
2022/10/23 04:40:16;;;;;;;8.63;3.63;;;18.40;80.50;;;;;;5012506;28;20196;-90
2022/10/23 04:42:48;;;;;;;11.03;4.07;;;18.40;80.50;;;;;;5012905;28;20259;-91
2022/10/23 04:45:15;;;;;;;7.93;3.80;;;18.40;81.20;;;;;;5026586;28;20212;-89
2022/10/23 04:47:42;;;;;;;8.57;3.90;;;18.40;80.70;;;;;;5029020;28;20764;-92
2022/10/23 04:50:09;;;;;;;10.20;3.67;;;18.40;80.50;;;;;;5032309;28;20289;-92
2022/10/23 04:52:36;;;;;;;8.87;3.83;;;18.40;80.60;;;;;;5030258;28;20211;-93
2022/10/23 04:55:04;;;;;;;6.93;3.67;;;18.40;80.60;;;;;;5024864;28;20248;-93
2022/10/23 04:57:31;;;;;;;6.83;3.30;;;18.40;80.70;;;;;;5024204;28;20279;-90
2022/10/23 04:59:59;;;;;;;10.37;4.27;;;18.40;80.50;;;;;;5017465;28;20248;-92
2022/10/23 05:02:37;;;;;;;9.93;4.27;;;18.40;80.70;;;;;;5013149;28;20247;-91
2022/10/23 05:05:05;;;;;;;9.87;4.30;;;18.40;80.90;;;;;;5013723;28;20247;-92
2022/10/23 05:07:32;;;;;;;10.70;4.87;;;18.40;80.70;;;;;;5024017;28;20297;-92
2022/10/23 05:09:59;;;;;;;8.20;3.70;;;18.40;81.00;;;;;;5017095;28;20617;-92
2022/10/23 05:12:27;;;;;;;14.57;4.20;;;18.40;80.90;;;;;;5022848;28;20258;-90
2022/10/23 05:14:55;;;;;;;10.67;4.70;;;18.40;81.20;;;;;;5020545;28;20258;-91
2022/10/23 05:17:27;;;;;;;8.33;3.50;;;18.40;81.00;;;;;;5026584;28;20218;-91
2022/10/23 05:19:58;;;;;;;9.87;3.30;;;18.30;80.90;;;;;;5023188;28;20915;-91
2022/10/23 05:22:30;;;;;;;9.37;4.37;;;18.40;80.70;;;;;;5023882;28;20560;-90
2022/10/23 05:24:57;;;;;;;10.93;4.57;;;18.30;80.60;;;;;;5023669;28;20207;-91
2022/10/23 05:27:24;;;;;;;11.60;4.30;;;18.30;80.60;;;;;;5037120;28;20322;-91
2022/10/23 05:29:53;;;;;;;8.93;3.90;;;18.30;80.50;;;;;;5035965;28;20296;-90
2022/10/23 05:32:26;;;;;;;8.43;4.13;;;18.30;81.20;;;;;;5036145;28;20224;-92
2022/10/23 05:34:55;;;;;;;7.97;3.83;;;18.30;81.20;;;;;;5038764;28;20277;-88
2022/10/23 05:37:24;;;;;;;12.93;5.13;;;18.30;81.20;;;;;;5036429;28;20684;-90
2022/10/23 05:39:52;;;;;;;8.27;4.03;;;18.30;82.00;;;;;;5039443;28;20774;-90
2022/10/23 05:42:23;;;;;;;8.87;4.00;;;18.30;81.40;;;;;;5036965;28;20227;-91
2022/10/23 05:44:51;;;;;;;8.77;3.97;;;18.30;81.70;;;;;;5037928;28;20238;-91
2022/10/23 05:47:18;;;;;;;11.10;4.83;;;18.30;81.70;;;;;;5036850;28;20242;-91
2022/10/23 05:49:46;;;;;;;9.57;4.43;;;18.30;81.90;;;;;;5039847;28;20298;-88
2022/10/23 05:52:14;;;;;;;10.37;4.53;;;18.20;82.20;;;;;;5041696;28;20735;-88
2022/10/23 05:54:42;;;;;;;11.77;4.47;;;18.20;82.20;;;;;;5042655;28;20226;-91
2022/10/23 05:57:10;;;;;;;13.30;4.70;;;18.30;82.70;;;;;;5042842;28;20244;-90
2022/10/23 05:59:39;;;;;;;12.90;4.70;;;18.30;82.20;;;;;;5041920;28;20577;-92
2022/10/23 06:02:06;;;;;;;10.13;4.03;;;18.30;82.30;;;;;;5039602;28;20258;-88
2022/10/23 06:04:34;;;;;;;9.50;3.90;;;18.20;82.70;;;;;;5039519;28;20207;-91
2022/10/23 06:07:01;;;;;;;10.30;4.37;;;18.20;83.20;;;;;;5042857;28;20294;-89
2022/10/23 06:09:30;;;;;;;17.13;5.83;;;18.20;83.30;;;;;;5038343;28;20242;-91
2022/10/23 06:12:01;;;;;;;14.10;5.60;;;18.20;83.70;;;;;;5039607;28;20201;-91
2022/10/23 06:14:28;;;;;;;8.53;3.97;;;18.20;83.60;;;;;;5036631;28;20609;-91
2022/10/23 06:16:55;;;;;;;10.10;4.17;;;18.20;83.70;;;;;;5041375;28;20208;-91
2022/10/23 06:19:22;;;;;;;10.17;4.37;;;18.20;83.70;;;;;;5040634;28;20210;-91
2022/10/23 06:21:50;;;;;;;10.03;4.30;;;18.20;84.10;;;;;;5041378;28;20208;-91
2022/10/23 06:24:20;;;;;;;13.57;4.93;;;18.30;84.80;;;;;;5040958;28;20211;-91
2022/10/23 06:26:53;;;;;;;14.90;5.10;;;18.20;85.00;;;;;;5033098;28;20220;-91
2022/10/23 06:29:20;;;;;;;11.37;4.23;;;18.30;85.60;;;;;;5015689;28;20215;-91
2022/10/23 06:31:47;;;;;;;11.27;4.13;;;18.30;84.50;;;;;;5022182;28;21101;-91
2022/10/23 06:34:20;;;;;;;9.97;3.73;;;18.30;84.80;;;;;;5029338;28;20216;-92
2022/10/23 06:36:50;;;;;;;6.07;3.33;;;18.30;86.00;;;;;;5027388;28;20208;-91
2022/10/23 06:39:17;;;;;;;13.40;4.17;;;18.30;86.00;;;;;;5032658;28;20265;-91
2022/10/23 06:41:44;;;;;;;8.27;3.73;;;18.30;85.40;;;;;;5012887;28;20216;-93
2022/10/23 06:44:14;;;;;;;9.27;3.97;;;18.30;85.50;;;;;;5010946;28;20213;-91
2022/10/23 06:46:41;;;;;;;9.43;4.40;;;18.30;85.90;;;;;;5010407;28;20648;-91
2022/10/23 06:49:11;;;;;;;7.97;3.90;;;18.30;85.50;;;;;;5021939;28;20320;-91
2022/10/23 06:51:38;;;;;;;18.30;5.90;;;18.30;85.60;;;;;;5018723;28;20208;-91
2022/10/23 06:54:05;;;;;;;10.67;4.30;;;18.30;85.50;;;;;;5022546;28;20781;-93
2022/10/23 06:56:34;;;;;;;7.83;3.63;;;18.30;85.90;;;;;;5013638;28;20210;-92
2022/10/23 06:59:09;;;;;;;10.93;3.70;;;18.40;86.10;;;;;;5031348;28;20310;-92
2022/10/23 07:01:39;;;;;;;12.70;5.23;;;18.40;86.20;;;;;;5033096;28;20207;-90
2022/10/23 07:04:06;;;;;;;9.27;4.23;;;18.40;86.70;;;;;;5027585;28;20676;-92
2022/10/23 07:06:33;;;;;;;10.87;4.03;;;18.40;86.20;;;;;;5011673;28;20972;-92
2022/10/23 07:09:00;;;;;;;12.60;4.97;;;18.40;86.50;;;;;;5016887;28;20676;-93
2022/10/23 07:11:30;;;;;;;13.20;5.50;;;18.40;86.70;;;;;;5030012;28;20727;-91
2022/10/23 07:13:58;;;;;;;11.23;4.03;;;18.40;87.60;;;;;;5026190;28;20687;-92
2022/10/23 07:16:25;;;;;;;12.73;4.63;;;18.50;86.90;;;;;;5027295;28;20239;-92
2022/10/23 07:18:58;;;;;;;12.73;4.67;;;18.50;87.10;;;;;;5003163;28;20671;-91
2022/10/23 07:21:29;;;;;;;16.67;6.30;;;18.50;88.20;;;;;;5015091;28;20207;-92
2022/10/23 07:23:58;;;;;;;11.47;4.70;;;18.50;87.60;;;;;;5013214;28;20240;-92
2022/10/23 07:26:25;;;;;;;13.77;5.40;;;18.50;87.70;;;;;;5010664;28;20207;-91
2022/10/23 07:28:54;;;;;;;12.40;4.50;;;18.50;87.50;;;;;;5021849;28;20303;-91
2022/10/23 07:31:21;;;;;;;9.40;4.00;;;18.50;87.60;;;;;;5011375;28;20281;-93
2022/10/23 07:33:48;;;;;;;11.20;4.57;;;18.50;87.80;;;;;;5011756;28;20212;-92
2022/10/23 07:36:25;;;;;;;12.57;4.70;;;18.60;87.90;;;;;;5026646;28;20698;-91
2022/10/23 07:38:52;;;;;;;18.07;6.97;;;18.60;88.90;;;;;;5017307;28;20222;-92
2022/10/23 07:41:22;;;;;;;16.87;6.37;;;18.60;88.30;;;;;;5011367;28;20235;-91
2022/10/23 07:43:50;;;;;;;8.53;3.97;;;18.60;88.90;;;;;;5013053;28;20271;-91
2022/10/23 07:46:17;;;;;;;9.83;3.77;;;18.60;89.10;;;;;;5027836;28;20236;-91
2022/10/23 07:48:46;;;;;;;8.30;3.47;;;18.70;89.10;;;;;;5023140;28;20216;-91
2022/10/23 07:51:15;;;;;;;11.40;4.30;;;18.60;89.80;;;;;;5027309;28;20252;-90
2022/10/23 07:53:47;;;;;;;7.47;3.27;;;18.70;90.20;;;;;;5010228;28;20292;-91
2022/10/23 07:56:17;;;;;;;9.03;3.37;;;18.70;90.20;;;;;;5024207;28;20663;-92
2022/10/23 07:58:44;;;;;;;9.27;4.00;;;18.70;90.20;;;;;;5031575;28;20215;-92
2022/10/23 08:01:18;;;;;;;9.63;3.70;;;18.80;90.20;;;;;;5014794;28;20212;-93
2022/10/23 08:03:46;;;;;;;10.07;4.17;;;18.80;90.80;;;;;;5020126;28;20212;-93
2022/10/23 08:06:13;;;;;;;10.03;3.77;;;18.80;90.50;;;;;;5031061;28;20236;-90
2022/10/23 08:08:40;;;;;;;9.60;4.47;;;18.80;90.50;;;;;;5029732;28;20205;-90
2022/10/23 08:11:12;;;;;;;9.00;3.80;;;18.80;90.60;;;;;;5017503;28;20303;-91
2022/10/23 08:13:42;;;;;;;13.67;4.80;;;18.80;91.00;;;;;;5025612;28;20252;-92
2022/10/23 08:16:11;;;;;;;8.67;3.90;;;18.80;90.80;;;;;;5027805;28;20266;-90
2022/10/23 08:18:39;;;;;;;16.97;6.47;;;18.90;90.80;;;;;;5016464;28;20208;-91
2022/10/23 08:21:06;;;;;;;15.50;5.67;;;18.90;90.70;;;;;;5012980;28;20714;-92
2022/10/23 08:23:34;;;;;;;10.07;4.77;;;18.90;90.80;;;;;;5025161;28;20217;-91
2022/10/23 08:26:06;;;;;;;12.83;4.73;;;18.90;90.80;;;;;;5031623;28;20669;-92
2022/10/23 08:28:36;;;;;;;9.67;3.10;;;18.90;91.20;;;;;;5034447;28;20292;-92
2022/10/23 08:31:08;;;;;;;9.67;3.83;;;19.00;91.20;;;;;;5031391;28;20219;-92
2022/10/23 08:33:36;;;;;;;8.00;3.77;;;19.00;91.40;;;;;;5013023;28;20223;-92
2022/10/23 08:36:07;;;;;;;11.57;4.00;;;19.00;91.00;;;;;;5010643;28;20228;-92
2022/10/23 08:38:36;;;;;;;9.00;3.90;;;19.00;91.30;;;;;;5020017;28;20216;-92
2022/10/23 08:41:03;;;;;;;12.00;4.17;;;19.10;91.40;;;;;;5012550;28;20303;-92
2022/10/23 08:43:40;;;;;;;11.83;4.73;;;19.10;91.00;;;;;;5024586;28;20296;-93
2022/10/23 08:46:12;;;;;;;8.33;3.90;;;19.10;91.40;;;;;;5029664;28;20271;-93
2022/10/23 08:48:47;;;;;;;11.10;4.00;;;19.10;91.30;;;;;;5022041;28;20254;-91
2022/10/23 08:51:18;;;;;;;9.50;4.30;;;19.20;91.40;;;;;;5012678;28;20205;-90
2022/10/23 08:53:50;;;;;;;9.53;3.90;;;19.20;91.40;;;;;;5027789;28;20319;-91
2022/10/23 08:56:22;;;;;;;6.30;3.17;;;19.20;91.50;;;;;;5018943;28;20257;-90
2022/10/23 08:59:04;;;;;;;9.53;4.10;;;19.20;91.70;;;;;;5031143;28;20215;-90
2022/10/23 09:01:38;;;;;;;11.20;3.90;;;19.20;91.80;;;;;;5028883;28;20640;-90
2022/10/23 09:04:05;;;;;;;9.23;3.97;;;19.20;91.70;;;;;;5025820;28;20216;-90
2022/10/23 09:06:38;;;;;;;10.93;4.27;;;19.20;91.40;;;;;;5027326;28;20752;-90
2022/10/23 09:09:46;;;;;;;10.23;4.47;;;19.30;91.70;;;;;;5026625;28;20627;-89
2022/10/23 09:12:15;;;;;;;7.77;3.57;;;19.30;91.90;;;;;;5024567;28;20213;-90
2022/10/23 09:14:56;;;;;;;8.03;3.77;;;19.30;91.40;;;;;;5024091;28;20228;-90
2022/10/23 09:17:26;;;;;;;12.57;4.37;;;19.40;91.90;;;;;;5009937;28;20652;-91
2022/10/23 09:20:00;;;;;;;7.27;3.30;;;19.40;91.70;;;;;;5024476;28;20231;-92
2022/10/23 09:22:28;;;;;;;7.83;3.53;;;19.50;91.90;;;;;;5021553;28;20209;-91
2022/10/23 09:24:56;;;;;;;9.07;4.33;;;19.50;91.50;;;;;;5018268;28;20204;-90
2022/10/23 09:27:24;;;;;;;8.87;4.23;;;19.50;91.50;;;;;;5031231;28;20315;-89
2022/10/23 09:29:58;;;;;;;17.17;6.63;;;19.50;91.40;;;;;;5027732;28;20330;-90
2022/10/23 09:32:38;;;;;;;13.60;5.50;;;19.50;91.50;;;;;;5037609;28;20257;-90
2022/10/23 09:35:06;;;;;;;12.00;4.97;;;19.60;91.70;;;;;;5036870;28;20238;-90
2022/10/23 09:37:36;;;;;;;19.00;6.63;;;19.60;91.20;;;;;;5032110;28;20865;-91
2022/10/23 09:40:22;;;;;;;16.87;6.20;;;19.60;91.20;;;;;;5035704;28;20214;-91
2022/10/23 09:42:58;;;;;;;13.33;4.73;;;19.60;91.40;;;;;;5031668;28;20699;-89
2022/10/23 09:45:30;;;;;;;26.37;7.40;;;19.60;91.30;;;;;;5024104;28;20657;-90
2022/10/23 09:48:06;;;;;;;9.13;4.27;;;19.70;91.50;;;;;;5030315;28;20211;-91
2022/10/23 09:50:33;;;;;;;12.13;4.87;;;19.70;91.50;;;;;;5033894;28;20278;-92
2022/10/23 09:53:01;;;;;;;8.63;4.07;;;19.70;91.10;;;;;;5043110;28;20196;-90
2022/10/23 09:55:28;;;;;;;10.40;4.33;;;19.70;91.00;;;;;;5036568;28;20900;-89
2022/10/23 09:57:58;;;;;;;9.27;3.80;;;19.70;90.90;;;;;;5034261;28;20684;-91
2022/10/23 10:00:29;;;;;;;13.57;5.23;;;19.80;90.90;;;;;;5028025;28;20715;-89
2022/10/23 10:02:59;;;;;;;17.83;6.50;;;19.80;91.10;;;;;;5026212;28;20196;-91
2022/10/23 10:05:29;;;;;;;14.53;4.97;;;19.80;91.00;;;;;;5032636;28;20209;-90
2022/10/23 10:08:01;;;;;;;7.50;3.53;;;19.80;90.90;;;;;;5023963;28;20965;-92
2022/10/23 10:10:35;;;;;;;10.33;3.97;;;19.90;90.90;;;;;;5015321;28;20205;-91
2022/10/23 10:13:09;;;;;;;12.10;4.13;;;19.90;90.80;;;;;;5017722;28;20783;-89
2022/10/23 10:15:47;;;;;;;16.67;5.93;;;20.00;90.90;;;;;;5009613;28;20232;-91
2022/10/23 10:18:21;;;;;;;16.17;5.03;;;20.00;91.10;;;;;;5011240;28;20216;-90
2022/10/23 10:21:11;;;;;;;17.77;6.30;;;20.00;91.10;;;;;;5009347;28;20295;-88
2022/10/23 10:23:47;;;;;;;11.53;4.40;;;20.10;91.20;;;;;;5018786;28;20232;-90
2022/10/23 10:26:33;;;;;;;17.90;7.13;;;20.10;90.60;;;;;;5021297;28;20228;-89
2022/10/23 10:29:11;;;;;;;18.80;6.00;;;20.10;90.90;;;;;;5012247;28;20294;-92
2022/10/23 10:31:48;;;;;;;12.83;5.20;;;20.10;90.80;;;;;;5015833;28;20237;-90
2022/10/23 10:34:27;;;;;;;14.23;5.67;;;20.10;90.50;;;;;;5023353;28;20750;-91
2022/10/23 10:36:56;;;;;;;12.13;5.30;;;20.20;90.50;;;;;;5014139;28;20686;-89
2022/10/23 10:39:40;;;;;;;16.20;5.57;;;20.20;90.30;;;;;;5024002;28;20296;-91
2022/10/23 10:42:39;;;;;;;19.70;7.03;;;20.20;90.40;;;;;;5011107;28;20744;-91
2022/10/23 10:45:18;;;;;;;8.37;4.03;;;20.20;90.60;;;;;;5018571;28;20305;-91
2022/10/23 10:48:03;;;;;;;12.63;4.30;;;20.30;90.50;;;;;;5024603;28;20713;-90
2022/10/23 10:50:38;;;;;;;10.77;4.80;;;20.30;90.20;;;;;;5027779;28;20197;-91
2022/10/23 10:53:17;;;;;;;10.13;3.93;;;20.40;90.20;;;;;;5012864;28;20209;-91
2022/10/23 10:55:48;;;;;;;10.93;4.40;;;20.40;90.00;;;;;;5021199;28;20214;-92
2022/10/23 10:58:20;;;;;;;6.87;3.40;;;20.40;90.00;;;;;;5048087;28;20287;-90
2022/10/23 11:00:52;;;;;;;12.23;4.87;;;20.50;90.10;;;;;;5027185;28;20208;-92
2022/10/23 11:03:35;;;;;;;11.60;4.30;;;20.50;89.60;;;;;;5020787;28;20704;-91
2022/10/23 11:06:06;;;;;;;10.80;4.43;;;20.50;90.00;;;;;;5026585;28;20205;-92
2022/10/23 11:08:36;;;;;;;11.93;4.37;;;20.60;89.30;;;;;;5012723;28;20300;-94
2022/10/23 11:11:09;;;;;;;13.57;5.57;;;20.60;89.60;;;;;;5014135;28;20212;-90
2022/10/23 11:13:40;;;;;;;11.47;4.77;;;20.70;89.40;;;;;;5023556;28;20855;-93
2022/10/23 11:16:13;;;;;;;6.77;3.20;;;20.70;88.80;;;;;;5028974;28;20317;-92
2022/10/23 11:18:56;;;;;;;8.73;3.77;;;20.70;88.80;;;;;;5033134;28;20636;-92
2022/10/23 11:21:30;;;;;;;14.00;5.43;;;20.80;88.90;;;;;;5013182;28;20316;-91
2022/10/23 11:24:45;;;;;;;11.03;4.60;;;20.90;88.90;;;;;;5014209;28;20230;-90
2022/10/23 11:28:03;;;;;;;9.60;4.30;;;20.90;88.80;;;;;;4955724;28;20228;-90
2022/10/23 11:30:47;;;;;;;10.63;4.33;;;21.00;88.40;;;;;;4943095;28;20259;-90
2022/10/23 11:33:48;;;;;;;7.87;3.90;;;21.10;87.50;;;;;;4948144;28;20314;-92
2022/10/23 11:36:19;;;;;;;8.03;4.03;;;21.20;87.00;;;;;;4934401;28;20242;-92
2022/10/23 11:38:49;;;;;;;12.23;4.97;;;21.20;87.20;;;;;;4950782;29;20207;-90
2022/10/23 11:41:22;;;;;;;10.57;4.93;;;21.30;87.20;;;;;;4967323;28;20236;-91
2022/10/23 11:43:54;;;;;;;9.77;3.80;;;21.40;86.70;;;;;;5026204;28;20229;-90
2022/10/23 11:46:33;;;;;;;18.47;6.17;;;21.40;86.40;;;;;;5011406;28;20194;-89
2022/10/23 11:49:04;;;;;;;14.23;5.50;;;21.60;86.60;;;;;;5028583;28;20205;-91
2022/10/23 11:51:36;;;;;;;8.10;3.67;;;21.60;86.00;;;;;;5025862;28;20935;-89
2022/10/23 11:54:21;;;;;;;9.53;3.77;;;21.70;85.60;;;;;;5014646;28;20209;-91
2022/10/23 11:56:56;;;;;;;8.60;3.87;;;21.70;84.90;;;;;;5017063;28;20332;-90
2022/10/23 11:59:27;;;;;;;12.47;5.27;;;21.80;84.40;;;;;;5024349;28;20217;-90
2022/10/23 12:02:00;;;;;;;10.33;4.63;;;21.90;84.80;;;;;;5010630;28;20292;-90
2022/10/23 12:04:34;;;;;;;10.67;4.40;;;22.00;84.20;;;;;;5017374;28;20204;-88
2022/10/23 12:07:14;;;;;;;13.50;5.47;;;22.00;84.20;;;;;;5017097;28;20257;-89
2022/10/23 12:09:46;;;;;;;11.60;4.83;;;22.10;83.30;;;;;;5023924;28;20268;-91
2022/10/23 12:12:32;;;;;;;7.90;3.57;;;22.20;82.50;;;;;;5027778;28;20259;-90
2022/10/23 12:15:25;;;;;;;10.43;4.50;;;22.20;82.10;;;;;;5009634;28;20205;-90
2022/10/23 12:17:54;;;;;;;9.60;4.23;;;22.30;82.20;;;;;;5001485;28;20253;-91
2022/10/23 12:20:39;;;;;;;9.27;4.03;;;22.40;82.10;;;;;;5022708;28;20316;-91
2022/10/23 12:23:38;;;;;;;6.77;3.60;;;22.50;80.70;;;;;;5011587;28;20210;-92
2022/10/23 12:26:22;;;;;;;7.10;3.50;;;22.50;80.20;;;;;;5006588;28;20230;-91
2022/10/23 12:29:02;;;;;;;13.70;5.33;;;22.60;80.50;;;;;;5015893;28;20295;-91
2022/10/23 12:31:42;;;;;;;6.87;3.70;;;22.70;81.20;;;;;;5016797;28;20715;-93
2022/10/23 12:34:24;;;;;;;10.27;4.37;;;22.70;81.00;;;;;;5015998;28;20244;-89
2022/10/23 12:37:05;;;;;;;9.53;3.77;;;22.90;80.60;;;;;;5009624;28;20266;-93
2022/10/23 12:39:37;;;;;;;12.63;4.70;;;23.00;79.70;;;;;;5021896;28;20322;-90
2022/10/23 12:42:15;;;;;;;10.30;4.77;;;23.10;79.70;;;;;;5025705;28;20280;-92
2022/10/23 12:44:42;;;;;;;8.40;4.07;;;23.20;79.70;;;;;;5034108;28;20238;-90
2022/10/23 12:47:18;;;;;;;11.20;4.60;;;23.30;80.10;;;;;;5015404;28;20786;-91
2022/10/23 12:49:49;;;;;;;22.97;8.27;;;23.50;78.30;;;;;;5010433;28;20680;-91
2022/10/23 12:52:19;;;;;;;14.87;5.43;;;23.60;78.60;;;;;;5013697;28;20215;-89
2022/10/23 12:54:53;;;;;;;9.57;4.03;;;23.70;77.40;;;;;;5015806;28;20558;-90
2022/10/23 12:57:25;;;;;;;7.07;3.67;;;23.90;76.60;;;;;;5029024;28;20236;-91
2022/10/23 12:59:56;;;;;;;9.27;3.87;;;24.00;75.80;;;;;;5019988;28;20606;-91
2022/10/23 13:02:26;;;;;;;11.33;4.97;;;24.10;75.40;;;;;;5012567;28;20209;-92
2022/10/23 13:04:55;;;;;;;11.37;4.40;;;24.20;75.70;;;;;;5012901;28;20690;-93
2022/10/23 13:07:25;;;;;;;10.13;4.20;;;24.20;74.40;;;;;;5015495;28;20235;-90